TAF VMMC 230155Z 2301/2406 VRB03KT 8000 FEW015 SCT030 TEMPO 2302/2306 3500 SHRA FEW012CB SCT025 BECMG 2306/2308 24010KT TEMPO 2308/2314 VRB20G30KT 2500 TSRA FEW010CB SCT020 TEMPO 2320/2403 VRB03KT 4000 SHRA=

 

機場天氣預報電碼經解碼後

報告內容

編碼

意義

報告種類之識別

TAF

機場天氣預報

機場代碼

VMMC

中國澳門

發出的日期及時間

230155Z

23/08/2018 01:55 國際時

有效的日期及時間

2301/2406

由 23日 01:00 國際時 至 24日 06:00 國際時

地面風

VRB03KT

無定向, 風速 3 海里

能見度

8000

8 公里

天氣狀況

 

 

雲層狀況 / 雲層高度

FEW015 SCT030

雲量 1-2份, 雲底 1500 呎;
雲量 3-4份, 雲底 3000 呎

在有效時段內以下一或多項要素將有顯著改變

TEMPO 2302/2306 3500 SHRA FEW012CB SCT025

間中發生 由 23日 02:00 國際時 至 23日 06:00 國際時
能見度: 3500 米
天氣: 驟雨
雲: 雲量 1-2份 積雨雲, 雲底 1200 呎; 雲量 3-4份, 雲底 2500 呎

 

BECMG 2306/2308 24010KT

逐漸轉變 由 23日 06:00 國際時 至 23日 08:00 國際時
風: 平均風向 240 度, 風速 10 海里

 

TEMPO 2308/2314 VRB20G30KT 2500 TSRA FEW010CB SCT020

間中發生 由 23日 08:00 國際時 至 23日 14:00 國際時
風: 無定向, 風速 20 海里; 陣風 30 海里
能見度: 2500 米
天氣: 雷暴夾雨
雲: 雲量 1-2份 積雨雲, 雲底 1000 呎; 雲量 3-4份, 雲底 2000 呎

 

TEMPO 2320/2403 VRB03KT 4000 SHRA

間中發生 由 23日 20:00 國際時 至 24日 03:00 國際時
風: 無定向, 風速 3 海里
能見度: 4000 米
天氣: 驟雨

 

其它國際機場